Time;durP1;ratioP1;P1;durP2;ratioP2;P2;SDS_P1;SDS_P2;PMS_P1;PMS_P2;Temp;Humidity;BMP_temperature;BMP_pressure;BME280_temperature;BME280_humidity;BME280_pressure;Samples;Min_cycle;Max_cycle;Signal;HPM_P1;HPM_P2
2022/12/21 00:01:23;;;;;;;142.60;37.03;;;9.50;99.90;;;;;;5067341;28;20031;-81
2022/12/21 00:04:00;;;;;;;121.43;32.67;;;9.40;99.90;;;;;;5084169;28;20032;-81
2022/12/21 00:06:29;;;;;;;116.32;32.65;;;9.40;99.90;;;;;;5067076;28;20044;-81
2022/12/21 00:08:59;;;;;;;125.15;34.05;;;9.40;99.90;;;;;;5077635;28;20036;-81
2022/12/21 00:11:27;;;;;;;114.30;30.73;;;9.40;99.90;;;;;;5067513;28;20032;-80
2022/12/21 00:13:55;;;;;;;111.03;31.08;;;9.40;99.90;;;;;;5084701;28;20035;-81
2022/12/21 00:16:24;;;;;;;92.18;26.13;;;9.40;99.90;;;;;;5081795;28;20435;-80
2022/12/21 00:18:51;;;;;;;95.85;27.13;;;9.40;99.90;;;;;;5076969;28;20477;-80
2022/12/21 00:21:20;;;;;;;124.80;32.42;;;9.40;99.90;;;;;;5067572;28;20055;-80
2022/12/21 00:23:48;;;;;;;116.90;29.73;;;9.40;99.90;;;;;;5085248;28;20043;-80
2022/12/21 00:26:17;;;;;;;111.65;29.52;;;9.40;99.90;;;;;;5083879;28;20399;-80
2022/12/21 00:28:44;;;;;;;120.45;31.38;;;9.30;99.90;;;;;;5076431;28;20047;-80
2022/12/21 00:31:15;;;;;;;100.38;25.83;;;9.30;99.90;;;;;;5067579;28;20046;-80
2022/12/21 00:33:43;;;;;;;110.93;28.20;;;9.30;99.90;;;;;;5067449;28;20028;-80
2022/12/21 00:36:12;;;;;;;104.10;27.00;;;9.30;99.90;;;;;;5084651;28;20024;-80
2022/12/21 00:38:42;;;;;;;127.20;31.52;;;9.30;99.90;;;;;;5059646;28;20044;-80
2022/12/21 00:41:12;;;;;;;114.18;29.88;;;9.30;99.90;;;;;;5086518;28;20085;-80
2022/12/21 00:43:40;;;;;;;113.32;28.67;;;9.30;99.90;;;;;;5068746;28;20052;-80
2022/12/21 00:46:10;;;;;;;118.88;27.88;;;9.30;99.90;;;;;;5067853;28;20202;-80
2022/12/21 00:48:36;;;;;;;89.90;23.98;;;9.30;99.90;;;;;;5074182;28;20047;-80
2022/12/21 00:51:13;;;;;;;115.55;28.27;;;9.30;99.90;;;;;;5065734;28;20039;-80
2022/12/21 00:53:39;;;;;;;108.00;27.38;;;9.20;99.90;;;;;;5083471;28;20044;-81
2022/12/21 00:56:07;;;;;;;116.78;28.60;;;9.30;99.90;;;;;;5084592;28;20063;-80
2022/12/21 00:58:35;;;;;;;114.25;29.58;;;9.20;99.90;;;;;;5058969;28;20040;-80
2022/12/21 01:01:09;;;;;;;113.55;28.50;;;9.30;99.90;;;;;;5067181;28;21155;-80
2022/12/21 01:03:35;;;;;;;120.80;30.02;;;9.30;99.90;;;;;;5082000;28;20032;-80
2022/12/21 01:06:02;;;;;;;122.82;29.50;;;9.30;99.90;;;;;;5070051;28;20410;-80
2022/12/21 01:08:29;;;;;;;117.65;28.45;;;9.30;99.90;;;;;;5079947;28;20039;-80
2022/12/21 01:11:03;;;;;;;107.50;26.30;;;9.30;99.90;;;;;;5088717;28;20031;-80
2022/12/21 01:13:31;;;;;;;111.03;27.55;;;9.30;99.90;;;;;;5074578;28;20883;-80
2022/12/21 01:15:58;;;;;;;118.38;26.98;;;9.30;99.90;;;;;;5087872;28;20493;-81
2022/12/21 01:18:25;;;;;;;118.22;29.75;;;9.30;99.90;;;;;;5080748;28;20032;-80
2022/12/21 01:20:54;;;;;;;110.28;29.38;;;9.30;99.90;;;;;;5071323;28;20048;-80
2022/12/21 01:23:22;;;;;;;147.93;28.50;;;9.20;99.90;;;;;;5085776;28;20040;-80
2022/12/21 01:25:49;;;;;;;133.82;29.80;;;9.20;99.90;;;;;;5089978;28;20040;-81
2022/12/21 01:28:16;;;;;;;117.00;29.90;;;9.20;99.90;;;;;;5062207;28;20054;-80
2022/12/21 01:30:43;;;;;;;105.32;26.60;;;9.20;99.90;;;;;;5087474;28;20040;-80
2022/12/21 01:33:17;;;;;;;104.45;28.35;;;9.20;99.90;;;;;;5087594;28;20522;-80
2022/12/21 01:35:45;;;;;;;107.35;26.98;;;9.20;99.90;;;;;;5070952;28;20390;-80
2022/12/21 01:38:13;;;;;;;164.07;29.33;;;9.20;99.90;;;;;;5078319;28;20040;-80
2022/12/21 01:40:40;;;;;;;122.53;27.90;;;9.20;99.90;;;;;;5088178;28;20104;-80
2022/12/21 01:43:18;;;;;;;126.30;29.90;;;9.20;99.90;;;;;;5087617;28;20270;-80
2022/12/21 01:45:50;;;;;;;124.47;28.13;;;9.20;99.90;;;;;;5087158;28;20047;-80
2022/12/21 01:48:19;;;;;;;101.65;25.58;;;9.20;99.90;;;;;;5080479;28;20032;-81
2022/12/21 01:51:03;;;;;;;193.75;27.65;;;9.20;99.90;;;;;;5088009;28;20028;-80
2022/12/21 01:53:39;;;;;;;121.88;29.13;;;9.10;99.90;;;;;;5068631;28;20522;-80
2022/12/21 01:56:08;;;;;;;135.25;29.40;;;9.10;99.90;;;;;;5086650;28;20035;-80
2022/12/21 01:58:35;;;;;;;131.00;30.80;;;9.10;99.90;;;;;;5078728;28;20399;-81
2022/12/21 02:01:03;;;;;;;161.57;35.75;;;9.10;99.90;;;;;;5070454;28;20043;-80
2022/12/21 02:03:33;;;;;;;149.98;35.78;;;9.10;99.90;;;;;;5088192;28;20032;-80
2022/12/21 02:06:09;;;;;;;146.68;33.75;;;9.10;99.90;;;;;;5086291;28;20394;-80
2022/12/21 02:08:35;;;;;;;223.65;37.97;;;9.10;99.90;;;;;;5078734;28;20506;-80
2022/12/21 02:11:02;;;;;;;161.75;38.78;;;9.10;99.90;;;;;;5088337;28;20024;-80
2022/12/21 02:13:29;;;;;;;168.70;38.40;;;9.10;99.90;;;;;;5070626;28;20059;-80
2022/12/21 02:15:58;;;;;;;173.40;36.40;;;9.00;99.90;;;;;;5069879;28;20044;-80
2022/12/21 02:18:57;;;;;;;179.55;33.85;;;9.00;99.90;;;;;;5077516;28;20604;-80
2022/12/21 02:21:26;;;;;;;158.25;34.15;;;9.00;99.90;;;;;;5079154;28;20505;-80
2022/12/21 02:24:29;;;;;;;134.60;33.83;;;9.00;99.90;;;;;;5087967;28;20031;-80
2022/12/21 02:27:27;;;;;;;133.48;33.30;;;9.00;99.90;;;;;;5080591;28;20217;-80
2022/12/21 02:30:19;;;;;;;174.27;37.28;;;9.00;99.90;;;;;;5069921;28;20040;-80
2022/12/21 02:33:07;;;;;;;137.65;33.25;;;9.00;99.90;;;;;;5069995;28;20143;-80
2022/12/21 02:35:57;;;;;;;137.05;31.45;;;8.90;99.90;;;;;;5068255;28;20040;-80
2022/12/21 02:38:41;;;;;;;143.68;33.22;;;8.90;99.90;;;;;;5075818;28;20062;-80
2022/12/21 02:41:32;;;;;;;102.40;25.90;;;8.90;99.90;;;;;;5086230;28;20432;-80
2022/12/21 02:44:24;;;;;;;158.68;35.38;;;8.90;99.90;;;;;;5086469;28;20032;-80
2022/12/21 02:47:06;;;;;;;154.52;33.25;;;8.90;99.90;;;;;;5064272;28;20055;-79
2022/12/21 02:49:45;;;;;;;108.97;27.83;;;8.90;99.90;;;;;;5085068;28;20410;-80
2022/12/21 02:52:26;;;;;;;128.95;33.40;;;8.90;99.90;;;;;;5069817;28;20040;-80
2022/12/21 02:54:57;;;;;;;147.98;31.35;;;8.90;99.90;;;;;;5086511;28;20032;-80
2022/12/21 02:57:37;;;;;;;138.38;34.03;;;8.90;99.90;;;;;;5060691;28;20039;-80
2022/12/21 03:00:11;;;;;;;151.15;34.97;;;8.90;99.90;;;;;;5069566;28;20047;-80
2022/12/21 03:02:46;;;;;;;140.20;33.92;;;8.90;99.90;;;;;;5068812;28;20047;-80
2022/12/21 03:06:00;;;;;;;113.13;30.90;;;8.90;99.90;;;;;;5068803;28;20039;-80
2022/12/21 03:08:56;;;;;;;117.38;29.70;;;8.90;99.90;;;;;;5073104;28;20059;-80
2022/12/21 03:11:48;;;;;;;143.98;32.50;;;8.90;99.90;;;;;;5084809;28;20043;-80
2022/12/21 03:14:28;;;;;;;161.10;35.03;;;8.90;99.90;;;;;;5069032;28;20035;-80
2022/12/21 03:17:04;;;;;;;99.30;27.00;;;8.90;99.90;;;;;;5063912;28;20055;-80
2022/12/21 03:20:04;;;;;;;146.57;33.22;;;8.90;99.90;;;;;;5083966;28;20406;-80
2022/12/21 03:22:39;;;;;;;174.98;30.40;;;8.90;99.90;;;;;;5054772;28;20049;-80
2022/12/21 03:25:36;;;;;;;151.13;32.85;;;8.90;99.90;;;;;;5065345;28;20036;-80
2022/12/21 03:28:13;;;;;;;99.68;26.30;;;8.80;99.90;;;;;;5055165;28;20408;-80
2022/12/21 03:30:43;;;;;;;138.23;31.52;;;8.90;99.90;;;;;;5048355;28;20482;-81
2022/12/21 03:33:15;;;;;;;143.45;33.65;;;8.90;99.90;;;;;;5031822;28;20482;-80
2022/12/21 03:35:51;;;;;;;166.65;35.67;;;8.90;99.90;;;;;;5047902;28;20054;-80
2022/12/21 03:38:36;;;;;;;151.88;33.55;;;8.90;99.90;;;;;;5039647;28;20427;-81
2022/12/21 03:41:08;;;;;;;134.52;30.15;;;8.90;99.90;;;;;;5045189;28;20048;-81
2022/12/21 03:43:36;;;;;;;197.63;33.88;;;8.90;99.90;;;;;;5048082;28;20051;-81
2022/12/21 03:46:26;;;;;;;124.97;31.42;;;8.90;99.90;;;;;;5029234;28;20036;-81
2022/12/21 03:49:34;;;;;;;117.47;29.27;;;8.90;99.90;;;;;;5038451;28;20036;-81
2022/12/21 03:52:35;;;;;;;139.27;34.30;;;8.90;99.90;;;;;;5060003;28;20057;-81
2022/12/21 03:55:05;;;;;;;210.75;34.38;;;8.90;99.90;;;;;;5030381;28;20069;-81
2022/12/21 03:57:33;;;;;;;168.48;34.63;;;8.90;99.90;;;;;;5056485;28;20361;-82
2022/12/21 04:00:02;;;;;;;173.73;31.75;;;8.90;99.90;;;;;;5045893;28;20098;-82
2022/12/21 04:02:56;;;;;;;182.93;32.95;;;8.90;99.90;;;;;;5065368;28;20039;-81
2022/12/21 04:05:51;;;;;;;115.50;29.65;;;8.90;99.90;;;;;;5048416;28;20490;-82
2022/12/21 04:08:18;;;;;;;155.75;31.00;;;8.90;99.90;;;;;;5066902;28;20431;-81
2022/12/21 04:10:47;;;;;;;156.98;33.13;;;8.90;99.90;;;;;;5064799;28;20059;-81
2022/12/21 04:13:15;;;;;;;142.63;33.63;;;8.90;99.90;;;;;;5047854;28;20043;-81
2022/12/21 04:21:11;;;;;;;111.78;28.17;;;8.90;99.90;;;;;;5055726;28;20048;-81
2022/12/21 04:29:07;;;;;;;133.45;31.70;;;8.90;99.90;;;;;;5062670;28;20051;-81
2022/12/21 04:31:34;;;;;;;196.93;33.58;;;8.90;99.90;;;;;;5055953;28;20395;-80
2022/12/21 04:34:00;;;;;;;150.27;31.60;;;8.90;99.90;;;;;;5084670;28;20032;-81
2022/12/21 04:39:11;;;;;;;171.77;33.85;;;8.90;99.90;;;;;;5063954;28;20050;-81
2022/12/21 04:41:38;;;;;;;178.50;36.00;;;8.90;99.90;;;;;;5088407;28;20047;-80
2022/12/21 04:44:04;;;;;;;156.60;36.20;;;8.80;99.90;;;;;;5089934;28;20390;-81
2022/12/21 04:46:30;;;;;;;112.90;28.70;;;8.80;99.90;;;;;;5050861;28;20479;-80
2022/12/21 04:48:57;;;;;;;158.82;37.38;;;8.80;99.90;;;;;;5065089;28;20032;-80
2022/12/21 04:51:25;;;;;;;175.52;36.10;;;8.80;99.90;;;;;;5088563;28;20036;-81
2022/12/21 04:53:52;;;;;;;177.85;37.30;;;8.80;99.90;;;;;;5087942;28;20032;-81
2022/12/21 04:56:19;;;;;;;156.85;34.72;;;8.80;99.90;;;;;;5087072;28;20494;-80
2022/12/21 04:58:46;;;;;;;176.45;37.95;;;8.80;99.90;;;;;;5063050;28;20506;-81
2022/12/21 05:01:19;;;;;;;159.77;37.60;;;8.80;99.90;;;;;;5071422;28;20047;-81
2022/12/21 05:03:45;;;;;;;224.05;42.67;;;8.80;99.90;;;;;;5070580;28;20047;-80
2022/12/21 05:06:13;;;;;;;163.00;38.78;;;8.80;99.90;;;;;;5071122;28;20048;-81
2022/12/21 05:08:40;;;;;;;180.18;37.40;;;8.80;99.90;;;;;;5062205;28;20048;-80
2022/12/21 05:11:19;;;;;;;157.13;37.65;;;8.80;99.90;;;;;;5088340;28;20497;-81
2022/12/21 05:13:46;;;;;;;162.85;33.92;;;8.80;99.90;;;;;;5087849;28;20040;-81
2022/12/21 05:16:18;;;;;;;166.82;38.20;;;8.70;99.90;;;;;;5071109;28;20039;-81
2022/12/21 05:18:48;;;;;;;135.48;33.88;;;8.70;99.90;;;;;;5079129;28;20032;-80
2022/12/21 05:21:14;;;;;;;199.27;39.05;;;8.70;99.90;;;;;;5070862;28;20052;-80
2022/12/21 05:23:41;;;;;;;170.63;37.10;;;8.70;99.90;;;;;;5087671;28;20062;-81
2022/12/21 05:26:08;;;;;;;163.20;37.97;;;8.70;99.90;;;;;;5087407;28;20048;-81
2022/12/21 05:28:35;;;;;;;128.98;38.70;;;8.70;99.90;;;;;;5057508;28;20048;-80
2022/12/21 05:31:06;;;;;;;176.00;40.83;;;8.70;99.90;;;;;;5105185;28;20044;-81
2022/12/21 05:33:32;;;;;;;149.07;35.10;;;8.70;99.90;;;;;;5087274;28;20505;-81
2022/12/21 05:36:07;;;;;;;166.93;39.50;;;8.70;99.90;;;;;;5087198;28;20036;-81
2022/12/21 05:38:34;;;;;;;235.60;48.22;;;8.70;99.90;;;;;;5061382;28;20130;-81
2022/12/21 05:41:01;;;;;;;180.43;42.33;;;8.70;99.90;;;;;;5089146;28;20043;-80
2022/12/21 05:43:28;;;;;;;220.52;48.05;;;8.70;99.90;;;;;;5088295;28;20040;-80
2022/12/21 05:45:59;;;;;;;202.20;43.53;;;8.70;99.90;;;;;;5086984;28;20043;-80
2022/12/21 05:48:25;;;;;;;167.88;39.38;;;8.70;99.90;;;;;;5078634;28;20060;-80
2022/12/21 05:50:51;;;;;;;149.82;34.45;;;8.70;99.90;;;;;;5083149;28;20024;-79
2022/12/21 05:53:17;;;;;;;212.88;38.80;;;8.70;99.90;;;;;;5066837;28;20494;-80
2022/12/21 05:55:47;;;;;;;134.00;31.92;;;8.70;99.90;;;;;;5079375;28;20043;-80
2022/12/21 05:58:14;;;;;;;97.05;30.40;;;8.70;99.90;;;;;;5058581;28;20584;-79
2022/12/21 06:00:41;;;;;;;206.68;44.83;;;8.70;99.90;;;;;;5079546;28;20545;-80
2022/12/21 06:03:07;;;;;;;187.98;42.50;;;8.70;99.90;;;;;;5067361;28;20514;-80
2022/12/21 06:05:35;;;;;;;141.27;38.50;;;8.70;99.90;;;;;;5065771;28;20043;-80
2022/12/21 06:08:01;;;;;;;204.80;44.35;;;8.70;99.90;;;;;;5043960;28;20040;-81
2022/12/21 06:10:28;;;;;;;197.85;42.20;;;8.70;99.90;;;;;;5101040;28;20039;-80
2022/12/21 06:12:55;;;;;;;196.43;44.63;;;8.70;99.90;;;;;;5068644;28;20027;-78
2022/12/21 06:15:21;;;;;;;244.98;49.50;;;8.70;99.90;;;;;;5086851;28;20039;-82
2022/12/21 06:17:48;;;;;;;230.02;51.13;;;8.70;99.90;;;;;;5061229;28;20502;-79
2022/12/21 06:20:15;;;;;;;195.43;49.75;;;8.70;99.90;;;;;;5069801;28;20510;-80
2022/12/21 06:22:41;;;;;;;243.10;49.63;;;8.70;99.90;;;;;;5080051;28;20053;-80
2022/12/21 06:25:08;;;;;;;205.82;48.42;;;8.70;99.90;;;;;;5068844;28;20039;-80
2022/12/21 06:27:35;;;;;;;201.75;50.33;;;8.60;99.90;;;;;;5055973;28;20045;-80
2022/12/21 06:30:01;;;;;;;197.00;51.45;;;8.60;99.90;;;;;;5068800;28;20032;-80
2022/12/21 06:32:28;;;;;;;207.07;50.17;;;8.60;99.90;;;;;;5085257;28;20468;-79
2022/12/21 06:34:54;;;;;;;182.43;47.75;;;8.60;99.90;;;;;;5064104;28;20039;-79
2022/12/21 06:37:20;;;;;;;192.15;45.85;;;8.60;99.90;;;;;;5071801;28;20138;-79
2022/12/21 06:39:47;;;;;;;167.45;42.50;;;8.60;99.90;;;;;;5085424;28;20601;-79
2022/12/21 06:42:13;;;;;;;155.68;40.75;;;8.60;99.90;;;;;;5050094;28;20039;-79
2022/12/21 06:44:39;;;;;;;196.82;43.78;;;8.70;99.90;;;;;;5085692;28;20024;-79
2022/12/21 06:47:06;;;;;;;249.05;51.03;;;8.70;99.90;;;;;;5080222;28;20038;-79
2022/12/21 06:49:32;;;;;;;229.90;52.17;;;8.70;99.90;;;;;;5084742;28;20032;-79
2022/12/21 06:51:58;;;;;;;190.98;46.60;;;8.60;99.90;;;;;;5087227;28;20028;-80
2022/12/21 06:54:25;;;;;;;142.13;39.15;;;8.60;99.90;;;;;;5068514;28;20387;-79
2022/12/21 06:56:51;;;;;;;110.97;33.08;;;8.60;99.90;;;;;;5063278;28;20499;-80
2022/12/21 06:59:18;;;;;;;205.43;48.83;;;8.60;99.90;;;;;;5066374;28;20059;-79
2022/12/21 07:01:44;;;;;;;197.38;49.13;;;8.60;99.90;;;;;;5085986;28;20031;-80
2022/12/21 07:04:11;;;;;;;199.95;49.30;;;8.60;99.90;;;;;;5068003;28;20039;-79
2022/12/21 07:06:37;;;;;;;205.50;46.88;;;8.60;99.90;;;;;;5065079;28;20055;-79
2022/12/21 07:09:04;;;;;;;197.18;44.33;;;8.60;99.90;;;;;;5080057;28;20054;-79
2022/12/21 07:11:30;;;;;;;184.88;42.80;;;8.60;99.90;;;;;;5068761;28;20036;-80
2022/12/21 07:13:56;;;;;;;182.40;45.72;;;8.60;99.90;;;;;;5067601;28;20323;-79
2022/12/21 07:16:23;;;;;;;232.52;52.67;;;8.60;99.90;;;;;;5065142;28;20608;-79
2022/12/21 07:18:50;;;;;;;200.60;53.10;;;8.60;99.90;;;;;;5061384;28;20039;-79
2022/12/21 07:21:19;;;;;;;229.63;53.55;;;8.60;99.90;;;;;;5085653;28;20055;-79
2022/12/21 07:23:46;;;;;;;230.43;55.05;;;8.60;99.90;;;;;;5051478;28;20025;-78
2022/12/21 07:26:23;;;;;;;185.40;46.50;;;8.60;99.90;;;;;;5085732;28;20418;-79
2022/12/21 07:28:50;;;;;;;214.88;56.40;;;8.60;99.90;;;;;;5068527;28;20390;-79
2022/12/21 07:31:20;;;;;;;240.68;57.83;;;8.60;99.90;;;;;;5052922;28;20398;-79
2022/12/21 07:33:47;;;;;;;215.20;53.10;;;8.60;99.90;;;;;;5068620;28;20044;-79
2022/12/21 07:36:14;;;;;;;205.07;52.65;;;8.50;99.90;;;;;;5085343;28;20036;-79
2022/12/21 07:38:42;;;;;;;191.82;50.95;;;8.50;99.90;;;;;;5075814;28;20467;-78
2022/12/21 07:41:14;;;;;;;153.50;45.33;;;8.50;99.90;;;;;;5068364;28;20040;-79
2022/12/21 07:43:41;;;;;;;154.73;44.78;;;8.50;99.90;;;;;;5067763;28;20042;-79
2022/12/21 07:46:13;;;;;;;183.57;48.40;;;8.50;99.90;;;;;;5061444;28;20024;-79
2022/12/21 07:48:39;;;;;;;188.13;47.85;;;8.50;99.90;;;;;;5076217;28;20384;-79
2022/12/21 07:51:07;;;;;;;186.60;49.67;;;8.50;99.90;;;;;;5068408;28;20039;-79
2022/12/21 07:53:34;;;;;;;199.35;49.30;;;8.50;99.90;;;;;;5086043;28;20499;-79
2022/12/21 07:56:03;;;;;;;179.82;47.42;;;8.40;99.90;;;;;;5068102;28;20040;-79
2022/12/21 07:58:29;;;;;;;162.38;45.17;;;8.50;99.90;;;;;;5077479;28;20036;-79
2022/12/21 08:01:06;;;;;;;163.77;44.58;;;8.40;99.90;;;;;;5068422;28;20038;-79
2022/12/21 08:03:36;;;;;;;126.13;38.17;;;8.40;99.90;;;;;;5086663;28;20031;-79
2022/12/21 08:06:04;;;;;;;143.57;41.45;;;8.40;99.90;;;;;;5086300;28;20036;-79
2022/12/21 08:08:30;;;;;;;185.77;44.88;;;8.30;99.90;;;;;;5071407;28;20036;-78
2022/12/21 08:10:57;;;;;;;152.45;43.00;;;8.40;99.90;;;;;;5084073;28;20043;-79
2022/12/21 08:13:24;;;;;;;196.38;56.55;;;8.30;99.90;;;;;;5078813;28;20406;-79
2022/12/21 08:16:01;;;;;;;147.98;44.28;;;8.30;99.90;;;;;;5071046;28;20036;-78
2022/12/21 08:18:28;;;;;;;192.57;55.35;;;8.40;99.90;;;;;;5078240;28;20040;-78
2022/12/21 08:20:55;;;;;;;174.25;50.65;;;8.30;99.90;;;;;;5086814;28;20040;-79
2022/12/21 08:23:22;;;;;;;189.20;54.88;;;8.30;99.90;;;;;;5088469;28;20043;-78
2022/12/21 08:25:48;;;;;;;141.13;43.80;;;8.30;99.90;;;;;;5072066;28;20040;-79
2022/12/21 08:28:15;;;;;;;158.20;50.20;;;8.40;99.90;;;;;;5079581;28;20036;-78
2022/12/21 08:30:41;;;;;;;164.82;48.00;;;8.40;99.90;;;;;;5088712;28;20044;-79
2022/12/21 08:33:09;;;;;;;178.30;52.72;;;8.30;99.90;;;;;;5071065;28;20071;-79
2022/12/21 08:35:36;;;;;;;147.45;48.13;;;8.40;99.90;;;;;;5067910;28;20040;-82
2022/12/21 08:38:03;;;;;;;188.13;61.15;;;8.40;99.90;;;;;;5073806;28;20043;-80
2022/12/21 08:40:31;;;;;;;145.13;47.17;;;8.30;99.90;;;;;;5088046;28;20040;-80
2022/12/21 08:42:57;;;;;;;161.05;49.10;;;8.30;99.90;;;;;;5082139;28;20032;-80
2022/12/21 08:45:23;;;;;;;141.15;43.42;;;8.30;99.90;;;;;;5070523;28;20035;-79
2022/12/21 08:47:50;;;;;;;102.22;38.80;;;8.30;99.90;;;;;;5079003;28;20028;-79
2022/12/21 08:50:16;;;;;;;162.73;52.50;;;8.30;99.90;;;;;;5090201;28;20043;-80
2022/12/21 08:52:42;;;;;;;128.25;44.72;;;8.30;99.90;;;;;;5071406;28;20043;-79
2022/12/21 08:55:09;;;;;;;153.40;48.03;;;8.40;99.90;;;;;;5088130;28;20040;-80
2022/12/21 08:57:35;;;;;;;138.48;46.92;;;8.40;99.90;;;;;;5062053;28;20040;-79
2022/12/21 09:00:03;;;;;;;123.45;40.70;;;8.40;99.90;;;;;;5071872;28;20386;-80
2022/12/21 09:02:29;;;;;;;125.20;42.72;;;8.40;99.90;;;;;;5071354;28;20565;-80
2022/12/21 09:04:56;;;;;;;107.05;38.00;;;8.40;99.90;;;;;;5087860;28;20028;-80
2022/12/21 09:07:22;;;;;;;83.50;32.58;;;8.50;99.90;;;;;;5095756;28;20040;-79
2022/12/21 09:09:48;;;;;;;127.38;44.03;;;8.50;99.90;;;;;;5071710;28;20040;-79
2022/12/21 09:12:15;;;;;;;108.13;39.88;;;8.60;99.90;;;;;;5089761;28;20035;-79
2022/12/21 09:14:41;;;;;;;108.93;41.47;;;8.60;99.90;;;;;;5070900;28;20395;-79
2022/12/21 09:17:07;;;;;;;126.25;45.17;;;8.70;99.90;;;;;;5080564;28;20043;-79
2022/12/21 09:19:33;;;;;;;133.98;46.22;;;8.80;99.90;;;;;;5088759;28;20036;-79
2022/12/21 09:22:00;;;;;;;128.70;48.95;;;8.90;99.90;;;;;;5088093;28;20051;-79
2022/12/21 09:24:27;;;;;;;160.55;57.83;;;8.90;99.90;;;;;;5070816;28;20514;-79
2022/12/21 09:26:53;;;;;;;126.32;46.88;;;8.90;99.90;;;;;;5079180;28;20035;-79
2022/12/21 09:29:22;;;;;;;142.98;52.47;;;8.90;99.90;;;;;;5068076;28;20383;-79
2022/12/21 09:31:50;;;;;;;110.90;43.55;;;8.90;99.90;;;;;;5070783;28;20043;-79
2022/12/21 09:34:17;;;;;;;133.35;51.90;;;9.00;99.90;;;;;;5087341;28;20486;-78
2022/12/21 09:36:44;;;;;;;102.22;42.35;;;8.90;99.90;;;;;;5082849;28;21200;-79
2022/12/21 09:39:10;;;;;;;96.85;41.67;;;8.90;99.90;;;;;;5083117;28;20147;-80
2022/12/21 09:41:40;;;;;;;103.55;41.45;;;8.90;99.90;;;;;;5088047;28;20051;-79
2022/12/21 09:44:30;;;;;;;93.55;41.33;;;8.90;99.90;;;;;;5088572;28;20050;-80
2022/12/21 09:47:00;;;;;;;105.38;42.25;;;8.90;99.90;;;;;;5066038;28;20434;-79
2022/12/21 09:49:51;;;;;;;96.72;40.78;;;8.80;99.90;;;;;;5070324;28;20074;-79
2022/12/21 09:52:29;;;;;;;107.70;43.97;;;8.90;99.90;;;;;;5063539;28;20040;-79
2022/12/21 09:55:00;;;;;;;115.30;50.17;;;8.90;99.90;;;;;;5072868;28;20028;-79
2022/12/21 09:57:31;;;;;;;112.45;49.97;;;8.90;99.90;;;;;;5079296;28;20048;-79
2022/12/21 09:59:57;;;;;;;115.97;50.55;;;8.90;99.90;;;;;;5088941;28;20514;-79
2022/12/21 10:02:44;;;;;;;128.80;54.35;;;8.90;99.90;;;;;;5089050;28;20035;-79
2022/12/21 10:05:35;;;;;;;91.50;43.22;;;9.00;99.90;;;;;;5086988;28;20036;-79
2022/12/21 10:08:17;;;;;;;89.65;43.28;;;8.90;99.90;;;;;;5061062;28;20044;-79
2022/12/21 10:10:47;;;;;;;104.18;46.60;;;9.00;99.90;;;;;;5088374;28;20032;-79
2022/12/21 10:13:56;;;;;;;81.43;37.40;;;9.00;99.90;;;;;;5086579;28;20390;-79
2022/12/21 10:16:55;;;;;;;98.60;44.97;;;9.00;99.90;;;;;;5085222;28;20387;-79
2022/12/21 10:20:03;;;;;;;94.10;44.30;;;9.00;99.90;;;;;;5064571;28;20493;-79
2022/12/21 10:22:37;;;;;;;89.85;40.47;;;9.00;99.90;;;;;;5053631;28;20056;-79
2022/12/21 10:25:17;;;;;;;115.78;48.40;;;9.00;99.90;;;;;;5085798;28;20054;-80
2022/12/21 10:27:56;;;;;;;91.18;38.63;;;8.90;99.90;;;;;;5076764;28;20497;-80
2022/12/21 10:30:23;;;;;;;125.45;49.67;;;8.90;99.90;;;;;;5086672;28;20043;-79
2022/12/21 10:32:50;;;;;;;96.90;41.67;;;8.90;99.90;;;;;;5069414;28;20140;-79
2022/12/21 10:35:37;;;;;;;73.25;32.45;;;8.90;99.90;;;;;;5068823;28;20051;-80
2022/12/21 10:38:14;;;;;;;80.53;36.42;;;8.90;99.90;;;;;;5059436;28;20501;-80
2022/12/21 10:40:43;;;;;;;85.18;39.15;;;8.90;99.90;;;;;;5086425;28;20082;-79
2022/12/21 10:43:12;;;;;;;79.93;34.55;;;8.90;99.90;;;;;;5068903;28;20061;-79
2022/12/21 10:45:38;;;;;;;87.40;36.58;;;8.90;99.90;;;;;;5069426;28;20036;-79
2022/12/21 10:48:04;;;;;;;89.78;37.97;;;8.80;99.90;;;;;;5061979;28;20036;-79
2022/12/21 10:50:34;;;;;;;102.65;40.72;;;8.80;99.90;;;;;;5086123;28;20047;-79
2022/12/21 10:53:24;;;;;;;97.63;40.35;;;8.70;99.90;;;;;;5069112;28;20040;-79
2022/12/21 10:55:58;;;;;;;85.07;37.92;;;8.70;99.90;;;;;;5069058;28;20036;-79
2022/12/21 10:58:28;;;;;;;96.40;40.78;;;8.70;99.90;;;;;;5075575;28;20036;-79
2022/12/21 11:00:56;;;;;;;72.35;31.65;;;8.70;99.90;;;;;;5068949;28;20032;-78
2022/12/21 11:03:31;;;;;;;78.35;37.78;;;8.70;99.90;;;;;;5068721;28;20094;-79
2022/12/21 11:06:09;;;;;;;95.45;40.53;;;8.80;99.90;;;;;;5068044;28;20024;-79
2022/12/21 11:08:46;;;;;;;116.38;49.97;;;8.80;99.90;;;;;;5058949;28;20044;-79
2022/12/21 11:11:34;;;;;;;104.25;45.67;;;8.80;99.90;;;;;;5085861;28;20482;-78
2022/12/21 11:14:03;;;;;;;104.75;47.05;;;8.90;99.90;;;;;;5067465;28;20031;-79
2022/12/21 11:16:31;;;;;;;109.80;49.10;;;8.80;99.90;;;;;;5079080;28;20055;-79
2022/12/21 11:19:01;;;;;;;96.93;45.08;;;8.90;99.90;;;;;;5061795;28;20038;-79
2022/12/21 11:21:42;;;;;;;137.40;57.75;;;8.90;99.90;;;;;;5058204;28;20071;-79
2022/12/21 11:24:34;;;;;;;80.18;39.33;;;9.00;99.90;;;;;;5081904;28;20062;-79
2022/12/21 11:27:12;;;;;;;107.07;47.05;;;9.10;99.90;;;;;;5061199;28;20031;-79
2022/12/21 11:29:45;;;;;;;140.20;55.25;;;9.10;99.90;;;;;;5067540;28;20055;-78
2022/12/21 11:32:13;;;;;;;120.22;48.72;;;9.20;99.90;;;;;;5063811;28;20032;-79
2022/12/21 11:34:52;;;;;;;136.30;53.53;;;9.30;99.90;;;;;;5066926;28;20024;-77
2022/12/21 11:37:38;;;;;;;144.20;52.20;;;9.30;99.90;;;;;;5057756;28;20499;-78
2022/12/21 11:40:10;;;;;;;129.65;52.90;;;9.30;99.90;;;;;;5063963;28;20039;-77
2022/12/21 11:43:15;;;;;;;136.60;54.35;;;9.40;99.90;;;;;;5083717;28;20596;-78
2022/12/21 11:46:07;;;;;;;165.93;58.25;;;9.50;99.90;;;;;;5076074;28;20036;-76
2022/12/21 11:49:01;;;;;;;140.73;58.63;;;9.50;99.90;;;;;;5058538;28;20032;-77
2022/12/21 11:51:42;;;;;;;168.65;60.58;;;9.60;99.90;;;;;;5068295;28;20283;-77
2022/12/21 11:54:33;;;;;;;149.48;56.63;;;9.60;99.90;;;;;;5079976;28;20024;-76
2022/12/21 11:57:05;;;;;;;122.88;51.40;;;9.60;99.90;;;;;;5060330;28;20036;-77
2022/12/21 11:59:41;;;;;;;123.38;49.22;;;9.60;99.90;;;;;;5082547;28;20047;-77
2022/12/21 12:02:37;;;;;;;128.40;50.97;;;9.60;99.90;;;;;;5050254;28;20376;-76
2022/12/21 12:05:29;;;;;;;92.75;41.97;;;9.60;99.90;;;;;;5066592;28;20495;-77
2022/12/21 12:08:20;;;;;;;110.93;48.58;;;9.60;99.90;;;;;;5055880;28;20048;-77
2022/12/21 12:10:49;;;;;;;113.53;45.20;;;9.70;99.90;;;;;;5052794;28;20036;-76
2022/12/21 12:13:23;;;;;;;103.03;41.92;;;9.60;99.90;;;;;;5077465;28;20024;-77
2022/12/21 12:16:01;;;;;;;103.75;42.72;;;9.60;99.90;;;;;;5075215;28;20430;-77
2022/12/21 12:18:42;;;;;;;98.88;40.90;;;9.60;99.90;;;;;;5070651;28;20036;-77
2022/12/21 12:21:53;;;;;;;92.82;42.20;;;9.60;99.90;;;;;;5091419;28;20052;-77
2022/12/21 12:24:54;;;;;;;94.88;38.42;;;9.60;99.90;;;;;;5094918;28;20391;-77
2022/12/21 12:28:01;;;;;;;80.70;35.97;;;9.60;99.90;;;;;;5050912;28;20411;-76
2022/12/21 12:30:55;;;;;;;75.53;35.10;;;9.50;99.90;;;;;;5076421;28;20537;-76
2022/12/21 12:33:34;;;;;;;72.97;32.55;;;9.50;99.90;;;;;;5082704;28;20386;-77
2022/12/21 12:36:25;;;;;;;77.60;33.80;;;9.50;99.90;;;;;;5079532;28;20529;-76
2022/12/21 12:38:51;;;;;;;66.28;33.67;;;9.50;99.90;;;;;;5074948;28;20418;-77
2022/12/21 12:41:43;;;;;;;81.03;37.30;;;9.40;99.90;;;;;;5082954;28;20028;-77
2022/12/21 12:44:27;;;;;;;55.47;28.10;;;9.40;99.90;;;;;;5098098;28;20655;-76
2022/12/21 12:47:21;;;;;;;56.97;30.00;;;9.40;99.90;;;;;;5072710;28;20036;-76
2022/12/21 12:50:31;;;;;;;67.63;32.75;;;9.40;99.90;;;;;;5064839;28;20044;-77
2022/12/21 12:53:17;;;;;;;59.17;31.25;;;9.40;99.90;;;;;;5080977;28;20028;-77
2022/12/21 12:56:00;;;;;;;58.78;30.10;;;9.40;99.90;;;;;;5082921;28;20040;-77
2022/12/21 12:58:52;;;;;;;61.38;34.03;;;9.40;99.90;;;;;;5055283;28;20061;-76
2022/12/21 13:01:34;;;;;;;70.90;37.50;;;9.50;99.90;;;;;;5081506;28;20043;-77
2022/12/21 13:04:13;;;;;;;81.95;39.45;;;9.40;99.90;;;;;;5068137;28;20289;-76
2022/12/21 13:07:07;;;;;;;76.55;36.25;;;9.40;99.90;;;;;;5063925;28;20036;-76
2022/12/21 13:10:02;;;;;;;76.65;36.63;;;9.30;99.90;;;;;;5085183;28;20501;-76
2022/12/21 13:12:37;;;;;;;69.55;34.00;;;9.30;99.90;;;;;;5054873;28;20386;-76
2022/12/21 13:15:33;;;;;;;73.63;35.13;;;9.30;99.90;;;;;;5084993;28;20110;-77